sensor_id;sensor_type;location;lat;lon;timestamp;temperature;humidity
22779;DHT22;11556;51.194;3.800;2022-12-07T00:01:41;5.80;99.90
22779;DHT22;11556;51.194;3.800;2022-12-07T00:04:08;5.70;99.90
22779;DHT22;11556;51.194;3.800;2022-12-07T00:06:37;5.70;99.90
22779;DHT22;11556;51.194;3.800;2022-12-07T00:09:04;5.80;99.90
22779;DHT22;11556;51.194;3.800;2022-12-07T00:11:30;5.70;99.90
22779;DHT22;11556;51.194;3.800;2022-12-07T00:13:58;5.80;99.90
22779;DHT22;11556;51.194;3.800;2022-12-07T00:16:27;5.80;99.90
22779;DHT22;11556;51.194;3.800;2022-12-07T00:18:53;6.00;99.90
22779;DHT22;11556;51.194;3.800;2022-12-07T00:21:21;6.20;99.90
22779;DHT22;11556;51.194;3.800;2022-12-07T00:23:48;6.40;99.90
22779;DHT22;11556;51.194;3.800;2022-12-07T00:26:17;6.50;99.90
22779;DHT22;11556;51.194;3.800;2022-12-07T00:28:54;6.50;99.90
22779;DHT22;11556;51.194;3.800;2022-12-07T00:31:22;6.60;99.90
22779;DHT22;11556;51.194;3.800;2022-12-07T00:33:48;6.60;99.90
22779;DHT22;11556;51.194;3.800;2022-12-07T00:36:17;6.60;99.90
22779;DHT22;11556;51.194;3.800;2022-12-07T00:38:43;6.60;99.90
22779;DHT22;11556;51.194;3.800;2022-12-07T00:41:12;6.50;99.90
22779;DHT22;11556;51.194;3.800;2022-12-07T00:43:39;6.30;99.90
22779;DHT22;11556;51.194;3.800;2022-12-07T00:46:05;6.40;99.90
22779;DHT22;11556;51.194;3.800;2022-12-07T00:48:31;6.50;99.90
22779;DHT22;11556;51.194;3.800;2022-12-07T00:50:57;6.40;99.90
22779;DHT22;11556;51.194;3.800;2022-12-07T00:53:23;6.40;99.90
22779;DHT22;11556;51.194;3.800;2022-12-07T00:55:48;6.30;99.90
22779;DHT22;11556;51.194;3.800;2022-12-07T00:58:14;6.20;99.90
22779;DHT22;11556;51.194;3.800;2022-12-07T01:00:41;6.10;99.90
22779;DHT22;11556;51.194;3.800;2022-12-07T01:03:09;6.00;99.90
22779;DHT22;11556;51.194;3.800;2022-12-07T01:05:35;6.00;99.90
22779;DHT22;11556;51.194;3.800;2022-12-07T01:08:02;6.10;99.90
22779;DHT22;11556;51.194;3.800;2022-12-07T01:10:27;6.10;99.90
22779;DHT22;11556;51.194;3.800;2022-12-07T01:12:55;6.10;99.90
22779;DHT22;11556;51.194;3.800;2022-12-07T01:15:21;6.30;99.90
22779;DHT22;11556;51.194;3.800;2022-12-07T01:17:46;6.50;99.90
22779;DHT22;11556;51.194;3.800;2022-12-07T01:20:12;6.50;99.90
22779;DHT22;11556;51.194;3.800;2022-12-07T01:22:39;6.40;99.90
22779;DHT22;11556;51.194;3.800;2022-12-07T01:25:06;6.30;99.90
22779;DHT22;11556;51.194;3.800;2022-12-07T01:27:33;6.20;99.90
22779;DHT22;11556;51.194;3.800;2022-12-07T01:29:59;6.20;99.90
22779;DHT22;11556;51.194;3.800;2022-12-07T01:32:24;6.10;99.90
22779;DHT22;11556;51.194;3.800;2022-12-07T01:34:50;6.10;99.90
22779;DHT22;11556;51.194;3.800;2022-12-07T01:37:16;6.30;99.90
22779;DHT22;11556;51.194;3.800;2022-12-07T01:39:41;6.30;99.90
22779;DHT22;11556;51.194;3.800;2022-12-07T01:42:11;6.40;99.90
22779;DHT22;11556;51.194;3.800;2022-12-07T01:47:41;6.40;99.90
22779;DHT22;11556;51.194;3.800;2022-12-07T01:50:07;6.40;99.90
22779;DHT22;11556;51.194;3.800;2022-12-07T01:52:33;6.40;99.90
22779;DHT22;11556;51.194;3.800;2022-12-07T01:55:08;6.40;99.90
22779;DHT22;11556;51.194;3.800;2022-12-07T01:57:39;6.50;99.90
22779;DHT22;11556;51.194;3.800;2022-12-07T02:00:06;6.40;99.90
22779;DHT22;11556;51.194;3.800;2022-12-07T02:03:01;6.40;99.90
22779;DHT22;11556;51.194;3.800;2022-12-07T02:05:29;6.40;99.90
22779;DHT22;11556;51.194;3.800;2022-12-07T02:07:56;6.30;99.90
22779;DHT22;11556;51.194;3.800;2022-12-07T02:10:28;6.30;99.90
22779;DHT22;11556;51.194;3.800;2022-12-07T02:13:17;6.20;99.90
22779;DHT22;11556;51.194;3.800;2022-12-07T02:18:40;6.10;99.90
22779;DHT22;11556;51.194;3.800;2022-12-07T02:24:35;6.00;99.90
22779;DHT22;11556;51.194;3.800;2022-12-07T02:27:08;6.00;99.90
22779;DHT22;11556;51.194;3.800;2022-12-07T02:29:52;6.00;99.90
22779;DHT22;11556;51.194;3.800;2022-12-07T02:35:25;5.90;99.90
22779;DHT22;11556;51.194;3.800;2022-12-07T02:43:46;5.60;99.90
22779;DHT22;11556;51.194;3.800;2022-12-07T02:46:17;5.70;99.90
22779;DHT22;11556;51.194;3.800;2022-12-07T02:48:45;5.80;99.90
22779;DHT22;11556;51.194;3.800;2022-12-07T02:51:12;6.00;99.90
22779;DHT22;11556;51.194;3.800;2022-12-07T02:53:43;6.00;99.90
22779;DHT22;11556;51.194;3.800;2022-12-07T02:56:30;6.00;99.90
22779;DHT22;11556;51.194;3.800;2022-12-07T03:00:19;5.90;99.90
22779;DHT22;11556;51.194;3.800;2022-12-07T03:13:45;5.70;99.90
22779;DHT22;11556;51.194;3.800;2022-12-07T03:16:25;5.60;99.90
22779;DHT22;11556;51.194;3.800;2022-12-07T03:18:58;5.50;99.90
22779;DHT22;11556;51.194;3.800;2022-12-07T03:21:37;5.50;99.90
22779;DHT22;11556;51.194;3.800;2022-12-07T03:24:07;5.60;99.90
22779;DHT22;11556;51.194;3.800;2022-12-07T03:26:41;5.60;99.90
22779;DHT22;11556;51.194;3.800;2022-12-07T03:29:13;5.50;99.90
22779;DHT22;11556;51.194;3.800;2022-12-07T03:31:43;5.40;99.90
22779;DHT22;11556;51.194;3.800;2022-12-07T03:34:23;5.30;99.90
22779;DHT22;11556;51.194;3.800;2022-12-07T03:36:59;5.30;99.90
22779;DHT22;11556;51.194;3.800;2022-12-07T03:39:46;5.40;99.90
22779;DHT22;11556;51.194;3.800;2022-12-07T03:42:15;5.40;99.90
22779;DHT22;11556;51.194;3.800;2022-12-07T03:44:41;5.30;99.90
22779;DHT22;11556;51.194;3.800;2022-12-07T03:49:59;5.30;99.90
22779;DHT22;11556;51.194;3.800;2022-12-07T03:52:43;5.30;99.90
22779;DHT22;11556;51.194;3.800;2022-12-07T03:57:40;5.40;99.90
22779;DHT22;11556;51.194;3.800;2022-12-07T04:00:08;5.50;99.90
22779;DHT22;11556;51.194;3.800;2022-12-07T04:02:35;5.40;99.90
22779;DHT22;11556;51.194;3.800;2022-12-07T04:05:02;5.30;99.90
22779;DHT22;11556;51.194;3.800;2022-12-07T04:07:28;5.10;99.90
22779;DHT22;11556;51.194;3.800;2022-12-07T04:09:53;5.00;99.90
22779;DHT22;11556;51.194;3.800;2022-12-07T04:12:20;4.90;99.90
22779;DHT22;11556;51.194;3.800;2022-12-07T04:14:46;4.80;99.90
22779;DHT22;11556;51.194;3.800;2022-12-07T04:17:12;4.80;99.90
22779;DHT22;11556;51.194;3.800;2022-12-07T04:19:37;5.00;99.90
22779;DHT22;11556;51.194;3.800;2022-12-07T04:22:04;5.00;99.90
22779;DHT22;11556;51.194;3.800;2022-12-07T04:24:30;5.10;99.90
22779;DHT22;11556;51.194;3.800;2022-12-07T04:26:56;4.90;99.90
22779;DHT22;11556;51.194;3.800;2022-12-07T04:29:22;4.80;99.90
22779;DHT22;11556;51.194;3.800;2022-12-07T04:31:48;4.70;99.90
22779;DHT22;11556;51.194;3.800;2022-12-07T04:34:14;4.70;99.90
22779;DHT22;11556;51.194;3.800;2022-12-07T04:36:40;4.70;99.90
22779;DHT22;11556;51.194;3.800;2022-12-07T04:39:07;4.90;99.90
22779;DHT22;11556;51.194;3.800;2022-12-07T04:41:33;5.20;99.90
22779;DHT22;11556;51.194;3.800;2022-12-07T04:44:01;5.40;99.90
22779;DHT22;11556;51.194;3.800;2022-12-07T04:46:28;5.70;99.90
22779;DHT22;11556;51.194;3.800;2022-12-07T04:48:55;5.90;99.90
22779;DHT22;11556;51.194;3.800;2022-12-07T04:51:24;5.90;99.90
22779;DHT22;11556;51.194;3.800;2022-12-07T04:53:49;5.60;99.90
22779;DHT22;11556;51.194;3.800;2022-12-07T04:56:16;5.40;99.90
22779;DHT22;11556;51.194;3.800;2022-12-07T04:58:43;5.30;99.90
22779;DHT22;11556;51.194;3.800;2022-12-07T05:01:09;5.30;99.90
22779;DHT22;11556;51.194;3.800;2022-12-07T05:03:36;5.50;99.90
22779;DHT22;11556;51.194;3.800;2022-12-07T05:06:02;5.60;99.90
22779;DHT22;11556;51.194;3.800;2022-12-07T05:08:29;5.70;99.90
22779;DHT22;11556;51.194;3.800;2022-12-07T05:10:54;5.70;99.90
22779;DHT22;11556;51.194;3.800;2022-12-07T05:13:20;5.60;99.90
22779;DHT22;11556;51.194;3.800;2022-12-07T05:15:47;5.50;99.90
22779;DHT22;11556;51.194;3.800;2022-12-07T05:18:13;5.60;99.90
22779;DHT22;11556;51.194;3.800;2022-12-07T05:20:39;5.70;99.90
22779;DHT22;11556;51.194;3.800;2022-12-07T05:23:05;5.60;99.90
22779;DHT22;11556;51.194;3.800;2022-12-07T05:25:30;5.40;99.90
22779;DHT22;11556;51.194;3.800;2022-12-07T05:27:56;5.40;99.90
22779;DHT22;11556;51.194;3.800;2022-12-07T05:30:23;5.30;99.90
22779;DHT22;11556;51.194;3.800;2022-12-07T05:32:49;5.30;99.90
22779;DHT22;11556;51.194;3.800;2022-12-07T05:35:15;5.40;99.90
22779;DHT22;11556;51.194;3.800;2022-12-07T05:37:40;5.30;99.90
22779;DHT22;11556;51.194;3.800;2022-12-07T05:40:06;5.20;99.90
22779;DHT22;11556;51.194;3.800;2022-12-07T05:42:32;5.30;99.90
22779;DHT22;11556;51.194;3.800;2022-12-07T05:44:58;5.40;99.90
22779;DHT22;11556;51.194;3.800;2022-12-07T05:47:23;5.50;99.90
22779;DHT22;11556;51.194;3.800;2022-12-07T05:49:49;5.60;99.90
22779;DHT22;11556;51.194;3.800;2022-12-07T05:52:15;5.60;99.90
22779;DHT22;11556;51.194;3.800;2022-12-07T05:54:40;5.80;99.90
22779;DHT22;11556;51.194;3.800;2022-12-07T05:57:06;5.90;99.90
22779;DHT22;11556;51.194;3.800;2022-12-07T05:59:31;5.80;99.90
22779;DHT22;11556;51.194;3.800;2022-12-07T06:02:08;5.80;99.90
22779;DHT22;11556;51.194;3.800;2022-12-07T06:04:36;5.90;99.90
22779;DHT22;11556;51.194;3.800;2022-12-07T06:07:03;5.90;99.90
22779;DHT22;11556;51.194;3.800;2022-12-07T06:09:29;5.90;99.90
22779;DHT22;11556;51.194;3.800;2022-12-07T06:11:56;5.90;99.90
22779;DHT22;11556;51.194;3.800;2022-12-07T06:14:40;5.80;99.90
22779;DHT22;11556;51.194;3.800;2022-12-07T06:17:06;5.70;99.90
22779;DHT22;11556;51.194;3.800;2022-12-07T06:19:32;5.70;99.90
22779;DHT22;11556;51.194;3.800;2022-12-07T06:21:58;5.60;99.90
22779;DHT22;11556;51.194;3.800;2022-12-07T06:24:24;5.50;99.90
22779;DHT22;11556;51.194;3.800;2022-12-07T06:26:49;5.30;99.90
22779;DHT22;11556;51.194;3.800;2022-12-07T06:29:17;5.30;99.90
22779;DHT22;11556;51.194;3.800;2022-12-07T06:31:42;5.20;99.90
22779;DHT22;11556;51.194;3.800;2022-12-07T06:34:13;5.20;99.90
22779;DHT22;11556;51.194;3.800;2022-12-07T06:36:39;5.30;99.90
22779;DHT22;11556;51.194;3.800;2022-12-07T06:39:06;5.30;99.90
22779;DHT22;11556;51.194;3.800;2022-12-07T06:41:33;5.30;99.90
22779;DHT22;11556;51.194;3.800;2022-12-07T06:43:58;5.30;99.90
22779;DHT22;11556;51.194;3.800;2022-12-07T06:46:25;5.40;99.90
22779;DHT22;11556;51.194;3.800;2022-12-07T06:48:51;5.40;99.90
22779;DHT22;11556;51.194;3.800;2022-12-07T06:51:18;5.40;99.90
22779;DHT22;11556;51.194;3.800;2022-12-07T06:53:43;5.40;99.90
22779;DHT22;11556;51.194;3.800;2022-12-07T06:56:09;5.50;99.90
22779;DHT22;11556;51.194;3.800;2022-12-07T06:58:34;5.40;99.90
22779;DHT22;11556;51.194;3.800;2022-12-07T07:01:00;5.30;99.90
22779;DHT22;11556;51.194;3.800;2022-12-07T07:03:25;5.30;99.90
22779;DHT22;11556;51.194;3.800;2022-12-07T07:05:51;5.40;99.90
22779;DHT22;11556;51.194;3.800;2022-12-07T07:08:17;5.40;99.90
22779;DHT22;11556;51.194;3.800;2022-12-07T07:10:42;5.50;99.90
22779;DHT22;11556;51.194;3.800;2022-12-07T07:13:08;5.60;99.90
22779;DHT22;11556;51.194;3.800;2022-12-07T07:15:34;5.60;99.90
22779;DHT22;11556;51.194;3.800;2022-12-07T07:18:00;5.70;99.90
22779;DHT22;11556;51.194;3.800;2022-12-07T07:20:26;5.70;99.90
22779;DHT22;11556;51.194;3.800;2022-12-07T07:22:54;5.60;99.90
22779;DHT22;11556;51.194;3.800;2022-12-07T07:25:20;5.80;99.90
22779;DHT22;11556;51.194;3.800;2022-12-07T07:27:46;5.80;99.90
22779;DHT22;11556;51.194;3.800;2022-12-07T07:30:12;5.60;99.90
22779;DHT22;11556;51.194;3.800;2022-12-07T07:32:37;5.60;99.90
22779;DHT22;11556;51.194;3.800;2022-12-07T07:35:03;5.50;99.90
22779;DHT22;11556;51.194;3.800;2022-12-07T07:37:29;5.50;99.90
22779;DHT22;11556;51.194;3.800;2022-12-07T07:39:55;5.50;99.90
22779;DHT22;11556;51.194;3.800;2022-12-07T07:42:20;5.50;99.90
22779;DHT22;11556;51.194;3.800;2022-12-07T07:44:46;5.40;99.90
22779;DHT22;11556;51.194;3.800;2022-12-07T07:47:11;5.30;99.90
22779;DHT22;11556;51.194;3.800;2022-12-07T07:49:37;5.30;99.90
22779;DHT22;11556;51.194;3.800;2022-12-07T07:52:04;5.30;99.90
22779;DHT22;11556;51.194;3.800;2022-12-07T07:54:30;5.30;99.90
22779;DHT22;11556;51.194;3.800;2022-12-07T07:56:56;5.30;99.90
22779;DHT22;11556;51.194;3.800;2022-12-07T07:59:21;5.10;99.90
22779;DHT22;11556;51.194;3.800;2022-12-07T08:01:47;5.10;99.90
22779;DHT22;11556;51.194;3.800;2022-12-07T08:04:12;5.10;99.90
22779;DHT22;11556;51.194;3.800;2022-12-07T08:06:38;5.20;99.90
22779;DHT22;11556;51.194;3.800;2022-12-07T08:09:03;5.30;99.90
22779;DHT22;11556;51.194;3.800;2022-12-07T08:11:31;5.40;99.90
22779;DHT22;11556;51.194;3.800;2022-12-07T08:13:56;5.60;99.90
22779;DHT22;11556;51.194;3.800;2022-12-07T08:16:22;5.70;99.90
22779;DHT22;11556;51.194;3.800;2022-12-07T08:18:47;5.90;99.90
22779;DHT22;11556;51.194;3.800;2022-12-07T08:21:14;5.80;99.90
22779;DHT22;11556;51.194;3.800;2022-12-07T08:23:40;6.00;99.90
22779;DHT22;11556;51.194;3.800;2022-12-07T08:26:09;6.10;99.90
22779;DHT22;11556;51.194;3.800;2022-12-07T08:28:36;6.10;99.90
22779;DHT22;11556;51.194;3.800;2022-12-07T08:31:11;6.20;99.90
22779;DHT22;11556;51.194;3.800;2022-12-07T08:33:38;6.40;99.90
22779;DHT22;11556;51.194;3.800;2022-12-07T08:36:06;6.60;99.90
22779;DHT22;11556;51.194;3.800;2022-12-07T08:38:33;6.90;99.90
22779;DHT22;11556;51.194;3.800;2022-12-07T08:40:59;7.10;99.90
22779;DHT22;11556;51.194;3.800;2022-12-07T08:43:25;7.30;99.90
22779;DHT22;11556;51.194;3.800;2022-12-07T08:46:17;7.80;99.90
22779;DHT22;11556;51.194;3.800;2022-12-07T08:49:08;8.00;99.90
22779;DHT22;11556;51.194;3.800;2022-12-07T08:51:34;7.90;99.90
22779;DHT22;11556;51.194;3.800;2022-12-07T08:54:03;7.70;99.90
22779;DHT22;11556;51.194;3.800;2022-12-07T08:56:30;7.70;99.90
22779;DHT22;11556;51.194;3.800;2022-12-07T08:58:56;7.50;99.90
22779;DHT22;11556;51.194;3.800;2022-12-07T09:01:22;7.60;99.90
22779;DHT22;11556;51.194;3.800;2022-12-07T09:03:48;7.30;99.90
22779;DHT22;11556;51.194;3.800;2022-12-07T09:06:13;7.00;99.90
22779;DHT22;11556;51.194;3.800;2022-12-07T09:08:43;7.20;99.90
22779;DHT22;11556;51.194;3.800;2022-12-07T09:11:11;7.40;99.90
22779;DHT22;11556;51.194;3.800;2022-12-07T09:13:36;7.50;99.90
22779;DHT22;11556;51.194;3.800;2022-12-07T09:16:02;7.60;99.90
22779;DHT22;11556;51.194;3.800;2022-12-07T09:18:27;7.50;99.90
22779;DHT22;11556;51.194;3.800;2022-12-07T09:20:53;7.40;99.90
22779;DHT22;11556;51.194;3.800;2022-12-07T09:23:19;7.30;99.90
22779;DHT22;11556;51.194;3.800;2022-12-07T09:25:44;7.50;99.90
22779;DHT22;11556;51.194;3.800;2022-12-07T09:28:10;7.70;99.90
22779;DHT22;11556;51.194;3.800;2022-12-07T09:30:35;8.10;99.90
22779;DHT22;11556;51.194;3.800;2022-12-07T09:33:01;8.40;99.90
22779;DHT22;11556;51.194;3.800;2022-12-07T09:35:27;8.50;99.90
22779;DHT22;11556;51.194;3.800;2022-12-07T09:37:52;8.50;99.90
22779;DHT22;11556;51.194;3.800;2022-12-07T09:40:20;8.60;99.90
22779;DHT22;11556;51.194;3.800;2022-12-07T09:42:52;8.80;99.90
22779;DHT22;11556;51.194;3.800;2022-12-07T09:45:30;8.80;99.90
22779;DHT22;11556;51.194;3.800;2022-12-07T09:47:57;8.80;99.90
22779;DHT22;11556;51.194;3.800;2022-12-07T09:50:26;8.70;99.90
22779;DHT22;11556;51.194;3.800;2022-12-07T09:52:54;8.80;99.90
22779;DHT22;11556;51.194;3.800;2022-12-07T09:55:25;8.80;99.90
22779;DHT22;11556;51.194;3.800;2022-12-07T09:57:52;8.90;99.90
22779;DHT22;11556;51.194;3.800;2022-12-07T10:00:21;9.00;99.90
22779;DHT22;11556;51.194;3.800;2022-12-07T10:02:56;9.00;99.90
22779;DHT22;11556;51.194;3.800;2022-12-07T10:05:26;9.20;99.90
22779;DHT22;11556;51.194;3.800;2022-12-07T10:07:52;9.30;99.90
22779;DHT22;11556;51.194;3.800;2022-12-07T10:10:31;9.60;99.90
22779;DHT22;11556;51.194;3.800;2022-12-07T10:13:05;9.90;99.90
22779;DHT22;11556;51.194;3.800;2022-12-07T10:15:57;10.00;99.90
22779;DHT22;11556;51.194;3.800;2022-12-07T10:23:36;10.20;99.90
22779;DHT22;11556;51.194;3.800;2022-12-07T10:29:39;10.10;99.90
22779;DHT22;11556;51.194;3.800;2022-12-07T10:31:53;10.60;99.90
22779;DHT22;11556;51.194;3.800;2022-12-07T10:34:27;11.80;99.90
22779;DHT22;11556;51.194;3.800;2022-12-07T10:39:56;14.50;99.90
22779;DHT22;11556;51.194;3.800;2022-12-07T10:42:30;14.80;99.90
22779;DHT22;11556;51.194;3.800;2022-12-07T10:45:17;14.50;99.90
22779;DHT22;11556;51.194;3.800;2022-12-07T10:50:17;13.30;99.90
22779;DHT22;11556;51.194;3.800;2022-12-07T11:03:53;12.80;99.90
22779;DHT22;11556;51.194;3.800;2022-12-07T11:06:37;13.40;99.90
22779;DHT22;11556;51.194;3.800;2022-12-07T11:15:03;14.10;99.90
22779;DHT22;11556;51.194;3.800;2022-12-07T11:17:35;14.00;99.90
22779;DHT22;11556;51.194;3.800;2022-12-07T11:20:12;14.10;99.90
22779;DHT22;11556;51.194;3.800;2022-12-07T11:22:54;13.80;99.90
22779;DHT22;11556;51.194;3.800;2022-12-07T11:25:31;13.60;99.90
22779;DHT22;11556;51.194;3.800;2022-12-07T11:33:46;12.70;99.90
22779;DHT22;11556;51.194;3.800;2022-12-07T11:38:57;11.80;99.90
22779;DHT22;11556;51.194;3.800;2022-12-07T11:41:28;11.40;99.90
22779;DHT22;11556;51.194;3.800;2022-12-07T11:44:00;11.30;99.90
22779;DHT22;11556;51.194;3.800;2022-12-07T11:46:43;11.10;99.90
22779;DHT22;11556;51.194;3.800;2022-12-07T11:49:16;11.10;99.90
22779;DHT22;11556;51.194;3.800;2022-12-07T11:51:45;11.00;99.90
22779;DHT22;11556;51.194;3.800;2022-12-07T11:56:43;10.60;99.90
22779;DHT22;11556;51.194;3.800;2022-12-07T11:59:17;10.60;99.90
22779;DHT22;11556;51.194;3.800;2022-12-07T12:01:50;10.70;99.90
22779;DHT22;11556;51.194;3.800;2022-12-07T12:06:53;10.70;99.90
22779;DHT22;11556;51.194;3.800;2022-12-07T12:09:21;10.70;99.90
22779;DHT22;11556;51.194;3.800;2022-12-07T12:12:26;10.70;99.90
22779;DHT22;11556;51.194;3.800;2022-12-07T12:17:56;10.90;99.90
22779;DHT22;11556;51.194;3.800;2022-12-07T12:20:29;11.10;99.90
22779;DHT22;11556;51.194;3.800;2022-12-07T12:23:18;11.30;99.90
22779;DHT22;11556;51.194;3.800;2022-12-07T12:25:50;11.30;99.90
22779;DHT22;11556;51.194;3.800;2022-12-07T12:30:45;11.80;99.90
22779;DHT22;11556;51.194;3.800;2022-12-07T12:33:26;11.90;99.90
22779;DHT22;11556;51.194;3.800;2022-12-07T12:47:37;10.40;99.90
22779;DHT22;11556;51.194;3.800;2022-12-07T12:50:17;10.10;99.90
22779;DHT22;11556;51.194;3.800;2022-12-07T12:57:35;9.60;99.90
22779;DHT22;11556;51.194;3.800;2022-12-07T13:02:59;9.50;99.90
22779;DHT22;11556;51.194;3.800;2022-12-07T13:05:27;9.60;99.90
22779;DHT22;11556;51.194;3.800;2022-12-07T13:07:58;9.80;99.90
22779;DHT22;11556;51.194;3.800;2022-12-07T13:15:38;10.40;99.90
22779;DHT22;11556;51.194;3.800;2022-12-07T13:28:48;11.30;99.90
22779;DHT22;11556;51.194;3.800;2022-12-07T13:31:20;11.30;99.90
22779;DHT22;11556;51.194;3.800;2022-12-07T13:33:48;11.60;99.90
22779;DHT22;11556;51.194;3.800;2022-12-07T13:36:22;12.00;99.90
22779;DHT22;11556;51.194;3.800;2022-12-07T13:38:53;12.20;99.90
22779;DHT22;11556;51.194;3.800;2022-12-07T13:41:22;12.20;99.90
22779;DHT22;11556;51.194;3.800;2022-12-07T13:43:59;12.00;99.90
22779;DHT22;11556;51.194;3.800;2022-12-07T13:46:53;11.70;99.90
22779;DHT22;11556;51.194;3.800;2022-12-07T13:49:23;11.40;99.90
22779;DHT22;11556;51.194;3.800;2022-12-07T13:51:48;10.90;99.90
22779;DHT22;11556;51.194;3.800;2022-12-07T13:54:15;10.70;99.90
22779;DHT22;11556;51.194;3.800;2022-12-07T13:56:42;10.40;99.90
22779;DHT22;11556;51.194;3.800;2022-12-07T13:59:21;10.10;99.90
22779;DHT22;11556;51.194;3.800;2022-12-07T14:01:48;9.80;99.90
22779;DHT22;11556;51.194;3.800;2022-12-07T14:04:37;9.60;99.90
22779;DHT22;11556;51.194;3.800;2022-12-07T14:07:25;9.40;99.90
22779;DHT22;11556;51.194;3.800;2022-12-07T14:12:25;9.20;99.90
22779;DHT22;11556;51.194;3.800;2022-12-07T14:14:51;9.00;99.90
22779;DHT22;11556;51.194;3.800;2022-12-07T14:17:19;8.90;99.90
22779;DHT22;11556;51.194;3.800;2022-12-07T14:19:53;9.10;99.90
22779;DHT22;11556;51.194;3.800;2022-12-07T14:22:29;9.70;99.90
22779;DHT22;11556;51.194;3.800;2022-12-07T14:27:46;10.40;99.90
22779;DHT22;11556;51.194;3.800;2022-12-07T14:30:16;10.40;99.90
22779;DHT22;11556;51.194;3.800;2022-12-07T14:32:43;10.50;99.90
22779;DHT22;11556;51.194;3.800;2022-12-07T14:35:14;10.30;99.90
22779;DHT22;11556;51.194;3.800;2022-12-07T14:37:42;10.20;99.90
22779;DHT22;11556;51.194;3.800;2022-12-07T14:40:16;10.30;99.90
22779;DHT22;11556;51.194;3.800;2022-12-07T14:42:43;10.10;99.90
22779;DHT22;11556;51.194;3.800;2022-12-07T14:45:18;10.00;99.90
22779;DHT22;11556;51.194;3.800;2022-12-07T14:47:45;9.90;99.90
22779;DHT22;11556;51.194;3.800;2022-12-07T14:50:15;9.70;99.90
22779;DHT22;11556;51.194;3.800;2022-12-07T14:52:45;9.60;99.90
22779;DHT22;11556;51.194;3.800;2022-12-07T14:55:37;9.40;99.90
22779;DHT22;11556;51.194;3.800;2022-12-07T14:58:03;9.20;99.90
22779;DHT22;11556;51.194;3.800;2022-12-07T15:00:28;9.20;99.90
22779;DHT22;11556;51.194;3.800;2022-12-07T15:02:55;9.10;99.90
22779;DHT22;11556;51.194;3.800;2022-12-07T15:05:21;9.00;99.90
22779;DHT22;11556;51.194;3.800;2022-12-07T15:07:48;8.90;99.90
22779;DHT22;11556;51.194;3.800;2022-12-07T15:10:17;9.10;99.90
22779;DHT22;11556;51.194;3.800;2022-12-07T15:12:44;9.30;99.90
22779;DHT22;11556;51.194;3.800;2022-12-07T15:15:10;9.40;99.90
22779;DHT22;11556;51.194;3.800;2022-12-07T15:17:35;9.20;99.90
22779;DHT22;11556;51.194;3.800;2022-12-07T15:20:01;9.10;99.90
22779;DHT22;11556;51.194;3.800;2022-12-07T15:22:27;9.00;99.90
22779;DHT22;11556;51.194;3.800;2022-12-07T15:24:52;8.80;99.90
22779;DHT22;11556;51.194;3.800;2022-12-07T15:27:18;8.60;99.90
22779;DHT22;11556;51.194;3.800;2022-12-07T15:29:43;8.50;99.90
22779;DHT22;11556;51.194;3.800;2022-12-07T15:32:09;8.30;99.90
22779;DHT22;11556;51.194;3.800;2022-12-07T15:34:34;8.20;99.90
22779;DHT22;11556;51.194;3.800;2022-12-07T15:37:00;8.20;99.90
22779;DHT22;11556;51.194;3.800;2022-12-07T15:39:26;8.30;99.90
22779;DHT22;11556;51.194;3.800;2022-12-07T15:41:51;8.30;99.90
22779;DHT22;11556;51.194;3.800;2022-12-07T15:44:17;8.30;99.90
22779;DHT22;11556;51.194;3.800;2022-12-07T15:47:01;8.10;99.90
22779;DHT22;11556;51.194;3.800;2022-12-07T15:49:27;8.00;99.90
22779;DHT22;11556;51.194;3.800;2022-12-07T15:51:53;7.90;99.90
22779;DHT22;11556;51.194;3.800;2022-12-07T15:54:24;8.00;99.90
22779;DHT22;11556;51.194;3.800;2022-12-07T15:56:50;8.00;99.90
22779;DHT22;11556;51.194;3.800;2022-12-07T15:59:16;7.90;99.90
22779;DHT22;11556;51.194;3.800;2022-12-07T16:01:42;7.80;99.90
22779;DHT22;11556;51.194;3.800;2022-12-07T16:04:08;7.80;99.90
22779;DHT22;11556;51.194;3.800;2022-12-07T16:06:34;7.80;99.90
22779;DHT22;11556;51.194;3.800;2022-12-07T16:09:00;7.80;99.90
22779;DHT22;11556;51.194;3.800;2022-12-07T16:11:26;7.80;99.90
22779;DHT22;11556;51.194;3.800;2022-12-07T16:13:51;7.70;99.90
22779;DHT22;11556;51.194;3.800;2022-12-07T16:16:19;7.70;99.90
22779;DHT22;11556;51.194;3.800;2022-12-07T16:18:46;7.70;99.90
22779;DHT22;11556;51.194;3.800;2022-12-07T16:21:12;7.70;99.90
22779;DHT22;11556;51.194;3.800;2022-12-07T16:23:38;7.70;99.90
22779;DHT22;11556;51.194;3.800;2022-12-07T16:26:13;7.60;99.90
22779;DHT22;11556;51.194;3.800;2022-12-07T16:28:39;7.60;99.90
22779;DHT22;11556;51.194;3.800;2022-12-07T16:31:09;7.50;99.90
22779;DHT22;11556;51.194;3.800;2022-12-07T16:33:37;7.50;99.90
22779;DHT22;11556;51.194;3.800;2022-12-07T16:36:04;7.60;99.90
22779;DHT22;11556;51.194;3.800;2022-12-07T16:38:31;7.50;99.90
22779;DHT22;11556;51.194;3.800;2022-12-07T16:40:56;7.50;99.90
22779;DHT22;11556;51.194;3.800;2022-12-07T16:43:22;7.60;99.90
22779;DHT22;11556;51.194;3.800;2022-12-07T16:45:48;7.50;99.90
22779;DHT22;11556;51.194;3.800;2022-12-07T16:48:15;7.50;99.90
22779;DHT22;11556;51.194;3.800;2022-12-07T16:50:42;7.50;99.90
22779;DHT22;11556;51.194;3.800;2022-12-07T16:53:09;7.50;99.90
22779;DHT22;11556;51.194;3.800;2022-12-07T16:55:43;7.50;99.90
22779;DHT22;11556;51.194;3.800;2022-12-07T16:58:09;7.40;99.90
22779;DHT22;11556;51.194;3.800;2022-12-07T17:00:36;7.20;99.90
22779;DHT22;11556;51.194;3.800;2022-12-07T17:03:02;7.00;99.90
22779;DHT22;11556;51.194;3.800;2022-12-07T17:05:28;7.00;99.90
22779;DHT22;11556;51.194;3.800;2022-12-07T17:07:55;6.90;99.90
22779;DHT22;11556;51.194;3.800;2022-12-07T17:10:21;6.80;99.90
22779;DHT22;11556;51.194;3.800;2022-12-07T17:12:47;6.80;99.90
22779;DHT22;11556;51.194;3.800;2022-12-07T17:15:13;6.80;99.90
22779;DHT22;11556;51.194;3.800;2022-12-07T17:17:45;6.80;99.90
22779;DHT22;11556;51.194;3.800;2022-12-07T17:20:12;7.00;99.90
22779;DHT22;11556;51.194;3.800;2022-12-07T17:22:38;6.90;99.90
22779;DHT22;11556;51.194;3.800;2022-12-07T17:25:04;6.90;99.90
22779;DHT22;11556;51.194;3.800;2022-12-07T17:27:30;6.90;99.90
22779;DHT22;11556;51.194;3.800;2022-12-07T17:29:56;7.00;99.90
22779;DHT22;11556;51.194;3.800;2022-12-07T17:32:21;7.20;99.90
22779;DHT22;11556;51.194;3.800;2022-12-07T17:34:47;7.20;99.90
22779;DHT22;11556;51.194;3.800;2022-12-07T17:37:13;7.00;99.90
22779;DHT22;11556;51.194;3.800;2022-12-07T17:39:38;7.30;99.90
22779;DHT22;11556;51.194;3.800;2022-12-07T17:42:04;7.40;99.90
22779;DHT22;11556;51.194;3.800;2022-12-07T17:44:48;7.40;99.90
22779;DHT22;11556;51.194;3.800;2022-12-07T17:47:14;7.40;99.90
22779;DHT22;11556;51.194;3.800;2022-12-07T17:49:42;7.30;99.90
22779;DHT22;11556;51.194;3.800;2022-12-07T17:52:08;7.30;99.90
22779;DHT22;11556;51.194;3.800;2022-12-07T17:54:52;7.30;99.90
22779;DHT22;11556;51.194;3.800;2022-12-07T17:57:18;7.30;99.90
22779;DHT22;11556;51.194;3.800;2022-12-07T17:59:43;7.20;99.90
22779;DHT22;11556;51.194;3.800;2022-12-07T18:02:10;7.20;99.90